Terminal Aerodrome Forecast
Issued by NWS

Home | Current Version | Previous Version | Graphics & Text | Print | Product List | Glossary On
Versions: 1 2 3 4 5 6 7 8 9 10 11 12 13 14 15 16 17 18 19 20 21 22 23 24
000
FTUS43 KLOT 250524
TAFORD
TAF
KORD 250524Z 2506/2612 31014G20KT P6SM SCT020 BKN080 BKN120
      TEMPO 2508/2511 BKN020
     FM252300 31008KT P6SM FEW250
     FM260800 25003KT P6SM FEW250=

USA.gov is the U.S. government's official web portal to all federal, state and local government web resources and services.